Startpagina
METAR-TAF:

METAR-TAF

Vliegvelden :

Luchthaven Arad

Arad, Roemenië

breedte: 46-12N, lengte: 021-24E, hoogte: 117 m

Actueel weer

Dit bericht is 29 minuten geleden gemaakt, om 01:30 UTC
Wind 4 kt uit het westen
Temperatuur 8°C
Vochtigheid 100%
Druk 1020 hPa
Zicht: 2400 m
Weinig wolken op 200 ft
mistbanken

METAR: LRAR 200130Z AUTO 26004KT 2400 R27/0900VP2000D BCFG FEW002 08/08 Q1020

Tijdstip: 04:59 (01:59 UTC)

Verwachting

Dit bericht is 11 uur en het 59 minuten geleden gemaakt, om 14:00 UTC
Verwachting geldig van 19 om 15 UTC tot 19 om 24 UTC
Wind 4 kt uit variabele richting
Zicht 10 km of meer
geen wolken onder 1500 m en geen cumulonimbus
Wijzigt naar
van 19 om 21 UTC tot 19 om 23 UTC
Zicht: 5000 m
nevel

TAF: LRAR 191400Z 1915/1924 VRB04KT CAVOK BECMG 1921/1923 5000 BR

Waarnemingen en weersverwachtingen van meer dan 4000 vliegvelden (METAR en TAF).

De beschikbare stations zijn de gele en rode punten op de kaart.

Ga met uw muis naar het station om de naam te zien.

Klik dan om waarnemingen en weersverwachtingen te zien.

kaart wijzigen: klik op de groene knoppen met een zwart kruis om in te zoomen, op de groene knop met een streepje om uit te zoomen of op de groene pijlen voor aangrenzende kaarten.


METAR-TAF: